Ma Mousse — IR6857 — position and weather

sailwx.info

Track history (hours):
 
Tides and Currents Weather Stations Pressure Air Temp Water Temp Dewpoint Dewpoint Depression Visibility Wind Speed Wind Dir Waves Ship Positions

Ma Mousse

Last reported at 2018-Apr-09 14:07 UTC. Time now 2018-Apr-24 16:36 UTC.
Position N 17°20' W 061°50'.
Warning: this ship's position is 15 days out of date.

Length 15 m.

Type: Sailing vessel. MMSI: 247060960.

Date/timePositionNaut miles runAvg speedWind from/ knotsBaromVisibWave heightAir tempDewpointWater temp
2018-Apr-09 14:07N 17°20' W 061°50'1 7.6
2018-Apr-09 14:00N 17°19' W 061°50'4 7.4
2018-Apr-09 13:30N 17°15' W 061°51'4 7.5
2018-Apr-09 12:58N 17°11' W 061°52'3 6.7
2018-Apr-09 12:28N 17°08' W 061°53'2 3.3
2018-Apr-09 11:58N 17°07' W 061°51'0 0.0
2018-Apr-09 11:28N 17°07' W 061°51'0 0.0
2018-Apr-09 10:52N 17°07' W 061°51'0 0.0
2018-Apr-09 10:28N 17°07' W 061°51'0 0.0
2018-Apr-09 09:58N 17°07' W 061°51'0 0.0
2018-Apr-09 09:28N 17°07' W 061°51'0 0.0
2018-Apr-09 08:58N 17°07' W 061°51'0 0.0
2018-Apr-09 08:28N 17°07' W 061°51'0 0.0
2018-Apr-09 07:58N 17°07' W 061°51'0 0.0
2018-Apr-09 07:28N 17°07' W 061°51'0 0.0
2018-Apr-09 06:52N 17°07' W 061°51'0 0.0
2018-Apr-09 06:28N 17°07' W 061°51'0 0.0
2018-Apr-09 05:55N 17°07' W 061°51'0 0.0
2018-Apr-09 05:25N 17°07' W 061°51'0 0.0
2018-Apr-09 04:58N 17°07' W 061°51'0 0.0
2018-Apr-09 04:28N 17°07' W 061°51'0 0.0
2018-Apr-09 03:58N 17°07' W 061°51'0 0.0
2018-Apr-09 03:25N 17°07' W 061°51'0 0.0
2018-Apr-09 02:58N 17°07' W 061°51'0 0.0
2018-Apr-09 02:25N 17°07' W 061°51'0 0.0
2018-Apr-09 01:55N 17°07' W 061°51'0 0.0
2018-Apr-09 01:22N 17°07' W 061°51'0 0.0
2018-Apr-09 00:58N 17°07' W 061°51'0 0.0
2018-Apr-09 00:28N 17°07' W 061°51'0 0.0
2018-Apr-08 23:58N 17°07' W 061°51'0 0.0
2018-Apr-08 23:28N 17°07' W 061°51'0 0.0
2018-Apr-08 22:58N 17°07' W 061°51'0 0.0
2018-Apr-08 22:28N 17°07' W 061°51'0 0.0
2018-Apr-08 21:58N 17°07' W 061°51'0 0.1
2018-Apr-08 21:30N 17°07' W 061°51'2 4.3
2018-Apr-08 20:58N 17°08' W 061°53'9 1.9
2018-Apr-08 16:17N 16°59' W 061°53'1 4.9
2018-Apr-08 16:00N 16°59' W 061°51'3 5.3
2018-Apr-08 15:30N 16°59' W 061°48'3 5.1
2018-Apr-08 15:00N 17°00' W 061°46'0 0.7
2018-Apr-08 14:29N 17°00' W 061°46'0 0.0
2018-Apr-08 13:59N 17°00' W 061°46'0 0.5
2018-Apr-08 13:30N 17°00' W 061°46'0 0.0
2018-Apr-08 12:57N 17°00' W 061°46'0 0.0
2018-Apr-08 12:30N 17°00' W 061°46'0 0.0
2018-Apr-08 11:57N 17°00' W 061°46'0 0.0
2018-Apr-08 11:30N 17°00' W 061°46'0 0.0
2018-Apr-08 11:00N 17°00' W 061°46'0 0.0
2018-Apr-08 10:30N 17°00' W 061°46'0 0.0
2018-Apr-08 10:00N 17°00' W 061°46'0 0.0
2018-Apr-08 09:30N 17°00' W 061°46'0 0.0
2018-Apr-08 09:00N 17°00' W 061°46'0 0.0
2018-Apr-08 08:30N 17°00' W 061°46'0 0.0
2018-Apr-08 08:00N 17°00' W 061°46'0 0.0
2018-Apr-08 07:30N 17°00' W 061°46'0 0.0
2018-Apr-08 07:00N 17°00' W 061°46'0 0.0
2018-Apr-08 06:27N 17°00' W 061°46'0 0.0
2018-Apr-08 06:00N 17°00' W 061°46'0 0.0
2018-Apr-08 05:30N 17°00' W 061°46'0 0.0
2018-Apr-08 05:00N 17°00' W 061°46'0 0.0
2018-Apr-08 04:30N 17°00' W 061°46'0 0.0
2018-Apr-08 04:00N 17°00' W 061°46'0 0.0
2018-Apr-08 03:30N 17°00' W 061°46'0 0.0
2018-Apr-08 03:00N 17°00' W 061°46'0 0.0
2018-Apr-08 02:30N 17°00' W 061°46'0 0.0
2018-Apr-08 02:00N 17°00' W 061°46'0 0.0
2018-Apr-08 01:30N 17°00' W 061°46'0 0.0
2018-Apr-08 01:00N 17°00' W 061°46'0 0.0
2018-Apr-08 00:30N 17°00' W 061°46'0 0.0
2018-Apr-08 00:00N 17°00' W 061°46'0 0.0
2018-Apr-07 23:30N 17°00' W 061°46'0 0.0
2018-Apr-07 23:00N 17°00' W 061°46'0 0.0
2018-Apr-07 22:30N 17°00' W 061°46'0 0.0
2018-Apr-07 22:00N 17°00' W 061°46'0 0.0
2018-Apr-07 21:30N 17°00' W 061°46'0 0.1
2018-Apr-07 20:59N 17°00' W 061°46'0 0.0
2018-Apr-07 20:29N 17°00' W 061°46'0 0.0
2018-Apr-07 20:01N 17°00' W 061°46'0 0.0
2018-Apr-07 19:29N 17°00' W 061°46'0 0.9
2018-Apr-07 19:01N 16°60' W 061°46'2 4.4
2018-Apr-07 18:29N 17°00' W 061°43'2 4.7
2018-Apr-07 18:00N 17°02' W 061°41'4 4.2
2018-Apr-07 17:06N 17°05' W 061°39'1 4.6
2018-Apr-07 16:58N 17°05' W 061°40'2 4.4
2018-Apr-07 16:27N 17°07' W 061°41'2 4.5
2018-Apr-07 16:01N 17°09' W 061°42'2 3.1
2018-Apr-07 15:27N 17°09' W 061°44'1 2.5
2018-Apr-07 14:58N 17°09' W 061°45'0 0.0
2018-Apr-07 14:22N 17°09' W 061°45'0 0.0
2018-Apr-07 13:58N 17°09' W 061°45'0 0.0
2018-Apr-07 13:25N 17°09' W 061°45'0 0.0
2018-Apr-07 12:58N 17°09' W 061°45'0 0.0
2018-Apr-07 12:28N 17°09' W 061°45'0 0.0
2018-Apr-07 11:58N 17°09' W 061°45'0 0.0
2018-Apr-07 11:28N 17°09' W 061°45'0 0.0
2018-Apr-07 10:46N 17°09' W 061°45'0 0.0
2018-Apr-07 10:25N 17°09' W 061°45'0 0.0
2018-Apr-07 09:58N 17°09' W 061°45'0 0.0
2018-Apr-07 09:22N 17°09' W 061°45'0 0.0
2018-Apr-07 08:55N 17°09' W 061°45'0 0.0
2018-Apr-07 08:22N 17°09' W 061°45'0 0.0
2018-Apr-07 07:58N 17°09' W 061°45'0 0.0
2018-Apr-07 06:43N 17°09' W 061°45'0 0.0
2018-Apr-07 06:28N 17°09' W 061°45'0 0.0
2018-Apr-07 05:58N 17°09' W 061°45'0 0.0
2018-Apr-07 05:16N 17°09' W 061°45'0 0.0
2018-Apr-07 04:55N 17°09' W 061°45'0 0.0
2018-Apr-07 04:28N 17°09' W 061°45'0 0.0
2018-Apr-07 03:13N 17°09' W 061°45'0 0.0
2018-Apr-07 02:19N 17°09' W 061°45'0 0.0
2018-Apr-07 01:52N 17°09' W 061°45'0 0.0
2018-Apr-07 01:10N 17°09' W 061°45'0 0.0
2018-Apr-07 00:55N 17°09' W 061°45'0 0.0
2018-Apr-07 00:10N 17°09' W 061°45'0 0.0
2018-Apr-06 23:43N 17°09' W 061°45'0 0.0
2018-Apr-06 23:16N 17°09' W 061°45'0 0.0
2018-Apr-06 22:55N 17°09' W 061°45'0 0.0
2018-Apr-06 22:21N 17°09' W 061°45'1 3.4
2018-Apr-06 22:01N 17°09' W 061°44'0 0.9
2018-Apr-06 21:29N 17°09' W 061°44'0 0.0
2018-Apr-06 21:00N 17°09' W 061°44'0 0.0
2018-Apr-06 20:29N 17°09' W 061°44'0 0.0
2018-Apr-06 20:00N 17°09' W 061°44'0 0.0
2018-Apr-06 19:30N 17°09' W 061°44'0 0.0
2018-Apr-06 19:00N 17°09' W 061°44'0 0.0
2018-Apr-06 18:29N 17°09' W 061°44'0 0.0
2018-Apr-06 17:59N 17°09' W 061°44'0 0.0
2018-Apr-06 17:29N 17°09' W 061°44'0 0.0
2018-Apr-06 16:59N 17°09' W 061°44'1 1.9
2018-Apr-06 16:30N 17°10' W 061°44'2 3.0
2018-Apr-06 15:59N 17°09' W 061°43'2 4.3
2018-Apr-06 15:30N 17°07' W 061°43'1 2.1
2018-Apr-06 14:59N 17°06' W 061°44'0 0.0
2018-Apr-06 14:23N 17°06' W 061°44'0 0.0
2018-Apr-06 13:56N 17°06' W 061°44'0 0.0
2018-Apr-06 13:29N 17°06' W 061°44'0 0.0
2018-Apr-06 12:59N 17°06' W 061°44'0 0.0
2018-Apr-06 12:29N 17°06' W 061°44'0 0.6
2018-Apr-06 12:00N 17°06' W 061°43'1 1.6
2018-Apr-06 11:28N 17°06' W 061°43'0 0.0
2018-Apr-06 10:58N 17°06' W 061°43'0 0.0
2018-Apr-06 10:28N 17°06' W 061°43'0 0.0
2018-Apr-06 09:58N 17°06' W 061°43'0 0.0
2018-Apr-06 09:25N 17°06' W 061°43'0 0.0
2018-Apr-06 08:58N 17°06' W 061°43'0 0.0
2018-Apr-06 08:25N 17°06' W 061°43'0 0.0
2018-Apr-06 07:55N 17°06' W 061°43'0 0.0
2018-Apr-06 07:28N 17°06' W 061°43'0 0.0
2018-Apr-06 06:58N 17°06' W 061°43'0 0.0
2018-Apr-06 06:28N 17°06' W 061°43'0 0.0
2018-Apr-06 05:58N 17°06' W 061°43'0 0.0
2018-Apr-06 05:25N 17°06' W 061°43'0 0.0
2018-Apr-06 04:58N 17°06' W 061°43'0 0.0
2018-Apr-06 04:28N 17°06' W 061°43'0 0.0
2018-Apr-06 03:58N 17°06' W 061°43'0 0.0
2018-Apr-06 03:28N 17°06' W 061°43'0 0.0
2018-Apr-06 02:58N 17°06' W 061°43'0 0.0
2018-Apr-06 02:28N 17°06' W 061°43'0 0.0
2018-Apr-06 01:58N 17°06' W 061°43'0 0.0
2018-Apr-06 01:28N 17°06' W 061°43'0 0.0
2018-Apr-06 00:58N 17°06' W 061°43'0 0.0
2018-Apr-06 00:28N 17°06' W 061°43'0 0.0
2018-Apr-05 23:52N 17°06' W 061°43'0 0.0
2018-Apr-05 23:28N 17°06' W 061°43'0 0.0
2018-Apr-05 22:58N 17°06' W 061°43'0 0.0
2018-Apr-05 22:22N 17°06' W 061°43'0 0.0
2018-Apr-05 21:58N 17°06' W 061°43'0 0.0
2018-Apr-05 21:28N 17°06' W 061°43'0 0.4
2018-Apr-05 21:00N 17°06' W 061°43'1 1.6
2018-Apr-05 20:29N 17°06' W 061°44'0 0.0
2018-Apr-05 19:59N 17°06' W 061°44'0 0.0
2018-Apr-05 19:29N 17°06' W 061°44'0 0.0
2018-Apr-05 18:58N 17°06' W 061°44'1 2.0
2018-Apr-05 18:30N 17°06' W 061°43'5 0.3
2018-Apr-04 22:56N 17°02' W 061°40'2 5.2
2018-Apr-04 22:29N 16°60' W 061°41'2 4.5
2018-Apr-04 22:00N 16°57' W 061°41'3 5.1
2018-Apr-04 21:24N 16°54' W 061°41'3 6.8
2018-Apr-04 20:59N 16°52' W 061°41'  
Track history (hours):
 
Tides and Currents Weather Stations Pressure Air Temp Water Temp Dewpoint Dewpoint Depression Visibility Wind Speed Wind Dir Waves Ship Positions

Ma Mousse

Last reported at 2018-Apr-09 14:07 UTC. Time now 2018-Apr-24 16:36 UTC.
Position N 17°20' W 061°50'.
Warning: this ship's position is 15 days out of date.

Length 15 m.

Type: Sailing vessel. MMSI: 247060960.

Date/timePositionNaut miles runAvg speedWind from/ knotsBaromVisibWave heightAir tempDewpointWater temp
2018-Apr-09 14:07N 17°20' W 061°50'1 7.6
2018-Apr-09 14:00N 17°19' W 061°50'4 7.4
2018-Apr-09 13:30N 17°15' W 061°51'4 7.5
2018-Apr-09 12:58N 17°11' W 061°52'3 6.7
2018-Apr-09 12:28N 17°08' W 061°53'2 3.3
2018-Apr-09 11:58N 17°07' W 061°51'0 0.0
2018-Apr-09 11:28N 17°07' W 061°51'0 0.0
2018-Apr-09 10:52N 17°07' W 061°51'0 0.0
2018-Apr-09 10:28N 17°07' W 061°51'0 0.0
2018-Apr-09 09:58N 17°07' W 061°51'0 0.0
2018-Apr-09 09:28N 17°07' W 061°51'0 0.0
2018-Apr-09 08:58N 17°07' W 061°51'0 0.0
2018-Apr-09 08:28N 17°07' W 061°51'0 0.0
2018-Apr-09 07:58N 17°07' W 061°51'0 0.0
2018-Apr-09 07:28N 17°07' W 061°51'0 0.0
2018-Apr-09 06:52N 17°07' W 061°51'0 0.0
2018-Apr-09 06:28N 17°07' W 061°51'0 0.0
2018-Apr-09 05:55N 17°07' W 061°51'0 0.0
2018-Apr-09 05:25N 17°07' W 061°51'0 0.0
2018-Apr-09 04:58N 17°07' W 061°51'0 0.0
2018-Apr-09 04:28N 17°07' W 061°51'0 0.0
2018-Apr-09 03:58N 17°07' W 061°51'0 0.0
2018-Apr-09 03:25N 17°07' W 061°51'0 0.0
2018-Apr-09 02:58N 17°07' W 061°51'0 0.0
2018-Apr-09 02:25N 17°07' W 061°51'0 0.0
2018-Apr-09 01:55N 17°07' W 061°51'0 0.0
2018-Apr-09 01:22N 17°07' W 061°51'0 0.0
2018-Apr-09 00:58N 17°07' W 061°51'0 0.0
2018-Apr-09 00:28N 17°07' W 061°51'0 0.0
2018-Apr-08 23:58N 17°07' W 061°51'0 0.0
2018-Apr-08 23:28N 17°07' W 061°51'0 0.0
2018-Apr-08 22:58N 17°07' W 061°51'0 0.0
2018-Apr-08 22:28N 17°07' W 061°51'0 0.0
2018-Apr-08 21:58N 17°07' W 061°51'0 0.1
2018-Apr-08 21:30N 17°07' W 061°51'2 4.3
2018-Apr-08 20:58N 17°08' W 061°53'9 1.9
2018-Apr-08 16:17N 16°59' W 061°53'1 4.9
2018-Apr-08 16:00N 16°59' W 061°51'3 5.3
2018-Apr-08 15:30N 16°59' W 061°48'3 5.1
2018-Apr-08 15:00N 17°00' W 061°46'0 0.7
2018-Apr-08 14:29N 17°00' W 061°46'0 0.0
2018-Apr-08 13:59N 17°00' W 061°46'0 0.5
2018-Apr-08 13:30N 17°00' W 061°46'0 0.0
2018-Apr-08 12:57N 17°00' W 061°46'0 0.0
2018-Apr-08 12:30N 17°00' W 061°46'0 0.0
2018-Apr-08 11:57N 17°00' W 061°46'0 0.0
2018-Apr-08 11:30N 17°00' W 061°46'0 0.0
2018-Apr-08 11:00N 17°00' W 061°46'0 0.0
2018-Apr-08 10:30N 17°00' W 061°46'0 0.0
2018-Apr-08 10:00N 17°00' W 061°46'0 0.0
2018-Apr-08 09:30N 17°00' W 061°46'0 0.0
2018-Apr-08 09:00N 17°00' W 061°46'0 0.0
2018-Apr-08 08:30N 17°00' W 061°46'0 0.0
2018-Apr-08 08:00N 17°00' W 061°46'0 0.0
2018-Apr-08 07:30N 17°00' W 061°46'0 0.0
2018-Apr-08 07:00N 17°00' W 061°46'0 0.0
2018-Apr-08 06:27N 17°00' W 061°46'0 0.0
2018-Apr-08 06:00N 17°00' W 061°46'0 0.0
2018-Apr-08 05:30N 17°00' W 061°46'0 0.0
2018-Apr-08 05:00N 17°00' W 061°46'0 0.0
2018-Apr-08 04:30N 17°00' W 061°46'0 0.0
2018-Apr-08 04:00N 17°00' W 061°46'0 0.0
2018-Apr-08 03:30N 17°00' W 061°46'0 0.0
2018-Apr-08 03:00N 17°00' W 061°46'0 0.0
2018-Apr-08 02:30N 17°00' W 061°46'0 0.0
2018-Apr-08 02:00N 17°00' W 061°46'0 0.0
2018-Apr-08 01:30N 17°00' W 061°46'0 0.0
2018-Apr-08 01:00N 17°00' W 061°46'0 0.0
2018-Apr-08 00:30N 17°00' W 061°46'0 0.0
2018-Apr-08 00:00N 17°00' W 061°46'0 0.0
2018-Apr-07 23:30N 17°00' W 061°46'0 0.0
2018-Apr-07 23:00N 17°00' W 061°46'0 0.0
2018-Apr-07 22:30N 17°00' W 061°46'0 0.0
2018-Apr-07 22:00N 17°00' W 061°46'0 0.0
2018-Apr-07 21:30N 17°00' W 061°46'0 0.1
2018-Apr-07 20:59N 17°00' W 061°46'0 0.0
2018-Apr-07 20:29N 17°00' W 061°46'0 0.0
2018-Apr-07 20:01N 17°00' W 061°46'0 0.0
2018-Apr-07 19:29N 17°00' W 061°46'0 0.9
2018-Apr-07 19:01N 16°60' W 061°46'2 4.4
2018-Apr-07 18:29N 17°00' W 061°43'2 4.7
2018-Apr-07 18:00N 17°02' W 061°41'4 4.2
2018-Apr-07 17:06N 17°05' W 061°39'1 4.6
2018-Apr-07 16:58N 17°05' W 061°40'2 4.4
2018-Apr-07 16:27N 17°07' W 061°41'2 4.5
2018-Apr-07 16:01N 17°09' W 061°42'2 3.1
2018-Apr-07 15:27N 17°09' W 061°44'1 2.5
2018-Apr-07 14:58N 17°09' W 061°45'0 0.0
2018-Apr-07 14:22N 17°09' W 061°45'0 0.0
2018-Apr-07 13:58N 17°09' W 061°45'0 0.0
2018-Apr-07 13:25N 17°09' W 061°45'0 0.0
2018-Apr-07 12:58N 17°09' W 061°45'0 0.0
2018-Apr-07 12:28N 17°09' W 061°45'0 0.0
2018-Apr-07 11:58N 17°09' W 061°45'0 0.0
2018-Apr-07 11:28N 17°09' W 061°45'0 0.0
2018-Apr-07 10:46N 17°09' W 061°45'0 0.0
2018-Apr-07 10:25N 17°09' W 061°45'0 0.0
2018-Apr-07 09:58N 17°09' W 061°45'0 0.0
2018-Apr-07 09:22N 17°09' W 061°45'0 0.0
2018-Apr-07 08:55N 17°09' W 061°45'0 0.0
2018-Apr-07 08:22N 17°09' W 061°45'0 0.0
2018-Apr-07 07:58N 17°09' W 061°45'0 0.0
2018-Apr-07 06:43N 17°09' W 061°45'0 0.0
2018-Apr-07 06:28N 17°09' W 061°45'0 0.0
2018-Apr-07 05:58N 17°09' W 061°45'0 0.0
2018-Apr-07 05:16N 17°09' W 061°45'0 0.0
2018-Apr-07 04:55N 17°09' W 061°45'0 0.0
2018-Apr-07 04:28N 17°09' W 061°45'0 0.0
2018-Apr-07 03:13N 17°09' W 061°45'0 0.0
2018-Apr-07 02:19N 17°09' W 061°45'0 0.0
2018-Apr-07 01:52N 17°09' W 061°45'0 0.0
2018-Apr-07 01:10N 17°09' W 061°45'0 0.0
2018-Apr-07 00:55N 17°09' W 061°45'0 0.0
2018-Apr-07 00:10N 17°09' W 061°45'0 0.0
2018-Apr-06 23:43N 17°09' W 061°45'0 0.0
2018-Apr-06 23:16N 17°09' W 061°45'0 0.0
2018-Apr-06 22:55N 17°09' W 061°45'0 0.0
2018-Apr-06 22:21N 17°09' W 061°45'1 3.4
2018-Apr-06 22:01N 17°09' W 061°44'0 0.9
2018-Apr-06 21:29N 17°09' W 061°44'0 0.0
2018-Apr-06 21:00N 17°09' W 061°44'0 0.0
2018-Apr-06 20:29N 17°09' W 061°44'0 0.0
2018-Apr-06 20:00N 17°09' W 061°44'0 0.0
2018-Apr-06 19:30N 17°09' W 061°44'0 0.0
2018-Apr-06 19:00N 17°09' W 061°44'0 0.0
2018-Apr-06 18:29N 17°09' W 061°44'0 0.0
2018-Apr-06 17:59N 17°09' W 061°44'0 0.0
2018-Apr-06 17:29N 17°09' W 061°44'0 0.0
2018-Apr-06 16:59N 17°09' W 061°44'1 1.9
2018-Apr-06 16:30N 17°10' W 061°44'2 3.0
2018-Apr-06 15:59N 17°09' W 061°43'2 4.3
2018-Apr-06 15:30N 17°07' W 061°43'1 2.1
2018-Apr-06 14:59N 17°06' W 061°44'0 0.0
2018-Apr-06 14:23N 17°06' W 061°44'0 0.0
2018-Apr-06 13:56N 17°06' W 061°44'0 0.0
2018-Apr-06 13:29N 17°06' W 061°44'0 0.0
2018-Apr-06 12:59N 17°06' W 061°44'0 0.0
2018-Apr-06 12:29N 17°06' W 061°44'0 0.6
2018-Apr-06 12:00N 17°06' W 061°43'1 1.6
2018-Apr-06 11:28N 17°06' W 061°43'0 0.0
2018-Apr-06 10:58N 17°06' W 061°43'0 0.0
2018-Apr-06 10:28N 17°06' W 061°43'0 0.0
2018-Apr-06 09:58N 17°06' W 061°43'0 0.0
2018-Apr-06 09:25N 17°06' W 061°43'0 0.0
2018-Apr-06 08:58N 17°06' W 061°43'0 0.0
2018-Apr-06 08:25N 17°06' W 061°43'0 0.0
2018-Apr-06 07:55N 17°06' W 061°43'0 0.0
2018-Apr-06 07:28N 17°06' W 061°43'0 0.0
2018-Apr-06 06:58N 17°06' W 061°43'0 0.0
2018-Apr-06 06:28N 17°06' W 061°43'0 0.0
2018-Apr-06 05:58N 17°06' W 061°43'0 0.0
2018-Apr-06 05:25N 17°06' W 061°43'0 0.0
2018-Apr-06 04:58N 17°06' W 061°43'0 0.0
2018-Apr-06 04:28N 17°06' W 061°43'0 0.0
2018-Apr-06 03:58N 17°06' W 061°43'0 0.0
2018-Apr-06 03:28N 17°06' W 061°43'0 0.0
2018-Apr-06 02:58N 17°06' W 061°43'0 0.0
2018-Apr-06 02:28N 17°06' W 061°43'0 0.0
2018-Apr-06 01:58N 17°06' W 061°43'0 0.0
2018-Apr-06 01:28N 17°06' W 061°43'0 0.0
2018-Apr-06 00:58N 17°06' W 061°43'0 0.0
2018-Apr-06 00:28N 17°06' W 061°43'0 0.0
2018-Apr-05 23:52N 17°06' W 061°43'0 0.0
2018-Apr-05 23:28N 17°06' W 061°43'0 0.0
2018-Apr-05 22:58N 17°06' W 061°43'0 0.0
2018-Apr-05 22:22N 17°06' W 061°43'0 0.0
2018-Apr-05 21:58N 17°06' W 061°43'0 0.0
2018-Apr-05 21:28N 17°06' W 061°43'0 0.4
2018-Apr-05 21:00N 17°06' W 061°43'1 1.6
2018-Apr-05 20:29N 17°06' W 061°44'0 0.0
2018-Apr-05 19:59N 17°06' W 061°44'0 0.0
2018-Apr-05 19:29N 17°06' W 061°44'0 0.0
2018-Apr-05 18:58N 17°06' W 061°44'1 2.0
2018-Apr-05 18:30N 17°06' W 061°43'5 0.3
2018-Apr-04 22:56N 17°02' W 061°40'2 5.2
2018-Apr-04 22:29N 16°60' W 061°41'2 4.5
2018-Apr-04 22:00N 16°57' W 061°41'3 5.1
2018-Apr-04 21:24N 16°54' W 061°41'3 6.8
2018-Apr-04 20:59N 16°52' W 061°41'  

Dump ship's entire track history